IBE6400 MMMX-LEMD
Flight info
| Callsign | IBE6400 |
|---|---|
| Flight time | N/A |
| Altitude | 35000 |
| Route | NOXOS2B NOXOS UT106 AXOMU UM346 CANOA DCT EYW DCT VKZ DCT NUCAR/N0458F370 A699 SUMRS/M079F370 M327 KANUX DCT ANTIG M328 NUMBR DCT 3430N05000W 36N040W/M079F390 3730N03000W 3830N02000W DCT GUNTI/N0456F400 DCT RIVRO/N0464F410 DCT BARDI/N0461F400 M191 RIDAV |
| Aircraft | A343/H-SDE2E3FGHIJ4J5M1RWXY/LB1D1 |
Departure
| Time | N/A |
|---|---|
| Airport | Mexico City Benito Juárez International Airport (MMMX) |
Arrival
| Time | 2026-05-04 09:01 |
|---|---|
| Airport | Adolfo Suárez Madrid–Barajas Airport (LEMD) |
| Time | Latitude | Longitude | Altitude | Speed | Heading |
|---|---|---|---|---|---|
| 2026-05-04 08:37 | 40.49536 | -5.60105 | 40030 ft | 496 kts | 123° |
| 2026-05-04 08:37 | 40.47865 | -5.56144 | 40029 ft | 496 kts | 124° |
| 2026-05-04 08:38 | 40.44466 | -5.48274 | 40025 ft | 496 kts | 124° |
| 2026-05-04 08:38 | 40.41047 | -5.40397 | 40020 ft | 496 kts | 124° |
| 2026-05-04 08:40 | 40.29113 | -5.13054 | 38446 ft | 498 kts | 125° |
| 2026-05-04 08:40 | 40.27385 | -5.09114 | 37717 ft | 500 kts | 125° |
| 2026-05-04 08:40 | 40.25647 | -5.05161 | 37027 ft | 502 kts | 125° |
| 2026-05-04 08:41 | 40.23901 | -5.01193 | 36314 ft | 504 kts | 125° |
| 2026-05-04 08:41 | 40.22146 | -4.97209 | 35648 ft | 506 kts | 126° |
| 2026-05-04 08:41 | 40.20386 | -4.93217 | 34948 ft | 507 kts | 126° |
| 2026-05-04 08:41 | 40.18641 | -4.89267 | 34296 ft | 509 kts | 127° |
| 2026-05-04 08:42 | 40.16933 | -4.85196 | 33561 ft | 513 kts | 123° |
| 2026-05-04 08:42 | 40.15340 | -4.81015 | 32788 ft | 514 kts | 123° |
| 2026-05-04 08:42 | 40.13753 | -4.76828 | 32013 ft | 514 kts | 123° |
| 2026-05-04 08:42 | 40.12152 | -4.72645 | 31268 ft | 515 kts | 124° |
| 2026-05-04 08:43 | 40.10550 | -4.68495 | 30582 ft | 514 kts | 124° |
| 2026-05-04 08:43 | 40.08935 | -4.64330 | 29900 ft | 512 kts | 124° |
| 2026-05-04 08:43 | 40.07326 | -4.60198 | 29178 ft | 509 kts | 124° |
| 2026-05-04 08:43 | 40.05726 | -4.56095 | 28469 ft | 505 kts | 124° |
| 2026-05-04 08:44 | 40.04139 | -4.52034 | 27864 ft | 499 kts | 124° |
| 2026-05-04 08:44 | 40.02594 | -4.48081 | 26905 ft | 486 kts | 124° |
| 2026-05-04 08:46 | 39.90822 | -4.23889 | 18867 ft | 426 kts | 135° |
| 2026-05-04 08:46 | 39.88972 | -4.20946 | 17938 ft | 419 kts | 134° |
| 2026-05-04 08:46 | 39.87135 | -4.18021 | 17010 ft | 416 kts | 134° |
| 2026-05-04 08:46 | 39.85315 | -4.15123 | 16354 ft | 408 kts | 134° |
| 2026-05-04 08:47 | 39.83743 | -4.12082 | 15273 ft | 407 kts | 119° |
| 2026-05-04 08:47 | 39.82922 | -4.08558 | 14296 ft | 408 kts | 103° |
| 2026-05-04 08:47 | 39.82465 | -4.04946 | 13833 ft | 402 kts | 101° |
| 2026-05-04 08:47 | 39.82037 | -4.01412 | 13261 ft | 399 kts | 101° |
| 2026-05-04 08:48 | 39.81646 | -3.97855 | 12845 ft | 394 kts | 96° |
| 2026-05-04 08:48 | 39.81884 | -3.94364 | 12621 ft | 387 kts | 75° |
| 2026-05-04 08:48 | 39.83004 | -3.91396 | 12398 ft | 378 kts | 52° |
| 2026-05-04 08:48 | 39.84723 | -3.88890 | 11843 ft | 365 kts | 45° |
| 2026-05-04 08:49 | 39.86493 | -3.86609 | 11125 ft | 354 kts | 44° |
| 2026-05-04 08:50 | 39.95564 | -3.74722 | 10076 ft | 308 kts | 45° |
| 2026-05-04 08:50 | 39.97061 | -3.72725 | 9829 ft | 307 kts | 45° |
| 2026-05-04 08:51 | 39.98549 | -3.70739 | 9489 ft | 307 kts | 46° |
| 2026-05-04 08:51 | 40.00039 | -3.68748 | 9139 ft | 306 kts | 45° |
| 2026-05-04 08:51 | 40.01521 | -3.66767 | 8824 ft | 304 kts | 45° |
| 2026-05-04 08:51 | 40.02999 | -3.64790 | 8489 ft | 303 kts | 45° |
| 2026-05-04 08:52 | 40.04461 | -3.62832 | 8191 ft | 300 kts | 45° |
| 2026-05-04 08:52 | 40.05915 | -3.60892 | 7883 ft | 299 kts | 45° |
| 2026-05-04 08:52 | 40.07358 | -3.58957 | 7594 ft | 296 kts | 45° |
| 2026-05-04 08:52 | 40.08790 | -3.57034 | 7351 ft | 293 kts | 45° |
| 2026-05-04 08:53 | 40.10139 | -3.55221 | 7221 ft | 285 kts | 45° |
| 2026-05-04 08:54 | 40.19245 | -3.43265 | 6149 ft | 257 kts | 40° |
| 2026-05-04 08:55 | 40.20595 | -3.41751 | 5903 ft | 256 kts | 36° |
| 2026-05-04 08:55 | 40.22085 | -3.40503 | 5665 ft | 253 kts | 27° |
| 2026-05-04 08:55 | 40.23593 | -3.39406 | 5409 ft | 251 kts | 26° |
| 2026-05-04 08:55 | 40.25184 | -3.38507 | 5101 ft | 248 kts | 9° |
| 2026-05-04 08:57 | 40.34973 | -3.43871 | 3988 ft | 208 kts | 318° |
| 2026-05-04 09:01 | 40.47338 | -3.56430 | 1994 ft | 96 kts | 322° |
| 2026-05-04 09:01 | 40.47763 | -3.56866 | 1999 ft | 69 kts | 322° |
| 2026-05-04 09:01 | 40.48105 | -3.57210 | 2006 ft | 56 kts | 322° |
| 2026-05-04 09:01 | 40.48348 | -3.57456 | 1999 ft | 31 kts | 322° |
| 2026-05-04 09:02 | 40.48455 | -3.57538 | 2000 ft | 16 kts | 348° |
| 2026-05-04 09:02 | 40.48570 | -3.57553 | 1998 ft | 15 kts | 353° |
| 2026-05-04 09:02 | 40.48658 | -3.57567 | 1996 ft | 14 kts | 353° |
| 2026-05-04 09:02 | 40.48690 | -3.57572 | 1996 ft | 0 kts | 353° |
| 2026-05-04 09:07 | 40.48860 | -3.57160 | 1986 ft | 17 kts | 90° |
| 2026-05-04 09:08 | 40.48860 | -3.57019 | 1984 ft | 13 kts | 89° |
| 2026-05-04 09:08 | 40.48861 | -3.56887 | 1981 ft | 15 kts | 90° |
| 2026-05-04 09:08 | 40.48861 | -3.56748 | 1979 ft | 9 kts | 90° |
| 2026-05-04 09:08 | 40.48861 | -3.56689 | 1978 ft | 8 kts | 90° |
| 2026-05-04 09:09 | 40.48862 | -3.56599 | 1976 ft | 11 kts | 90° |
| 2026-05-04 09:09 | 40.48875 | -3.56551 | 1979 ft | 5 kts | 33° |
| 2026-05-04 09:09 | 40.48920 | -3.56541 | 1977 ft | 9 kts | 2° |
| 2026-05-04 09:09 | 40.49002 | -3.56541 | 1974 ft | 13 kts | 359° |
| 2026-05-04 09:10 | 40.49099 | -3.56542 | 1974 ft | 15 kts | 359° |
| 2026-05-04 09:10 | 40.49204 | -3.56543 | 1975 ft | 16 kts | 0° |
| 2026-05-04 09:10 | 40.49314 | -3.56543 | 1974 ft | 14 kts | 359° |
| 2026-05-04 09:10 | 40.49417 | -3.56544 | 1973 ft | 15 kts | 359° |
| 2026-05-04 09:11 | 40.49527 | -3.56545 | 1978 ft | 16 kts | 360° |
| 2026-05-04 09:11 | 40.49642 | -3.56545 | 1974 ft | 13 kts | 0° |
| 2026-05-04 09:11 | 40.49683 | -3.56547 | 1975 ft | 3 kts | 351° |
| 2026-05-04 09:11 | 40.49689 | -3.56562 | 1978 ft | 1 kts | 284° |
| 2026-05-04 09:12 | 40.49691 | -3.56586 | 1977 ft | 3 kts | 275° |
| 2026-05-04 09:12 | 40.49692 | -3.56611 | 1977 ft | 2 kts | 274° |
| 2026-05-04 09:14 | 40.49695 | -3.56663 | 1979 ft | 0 kts | 274° |